createdAt,value
2022-09-12T00:03:06.007Z,3.03
2022-09-12T00:08:09.647Z,2.90
2022-09-12T00:13:14.610Z,2.93
2022-09-12T00:18:18.381Z,3.10
2022-09-12T00:23:25.488Z,2.70
2022-09-12T00:28:29.074Z,3.30
2022-09-12T00:33:32.981Z,3.10
2022-09-12T00:38:42.651Z,2.97
2022-09-12T00:43:53.938Z,3.10
2022-09-12T00:49:09.237Z,3.07
2022-09-12T00:54:17.712Z,3.83
2022-09-12T00:59:35.957Z,3.13
2022-09-12T01:04:41.122Z,3.97
2022-09-12T01:09:46.389Z,4.03
2022-09-12T01:14:49.952Z,3.20
2022-09-12T01:19:56.718Z,3.40
2022-09-12T01:25:27.943Z,3.63
2022-09-12T01:30:46.279Z,3.93
2022-09-12T01:36:11.830Z,3.80
2022-09-12T01:41:54.820Z,4.43
2022-09-12T01:46:58.427Z,3.90
2022-09-12T01:52:12.233Z,3.60
2022-09-12T01:57:28.190Z,4.10
2022-09-12T02:02:37.521Z,3.80
2022-09-12T02:07:50.427Z,3.60
2022-09-12T02:12:57.283Z,3.43
2022-09-12T02:18:04.016Z,3.33
2022-09-12T02:23:13.207Z,3.57
2022-09-12T02:28:34.664Z,4.00
2022-09-12T02:33:52.787Z,3.80
2022-09-12T02:38:58.075Z,4.73
2022-09-12T02:44:02.188Z,3.83
2022-09-12T02:49:05.840Z,3.53
2022-09-12T02:54:10.636Z,4.10
2022-09-12T02:59:18.269Z,4.10
2022-09-12T03:05:08.139Z,3.87
2022-09-12T03:10:31.784Z,4.03
2022-09-12T03:16:01.913Z,4.13
2022-09-12T03:21:12.408Z,3.97
2022-09-12T03:26:30.044Z,4.30
2022-09-12T03:31:33.936Z,3.60
2022-09-12T03:36:37.536Z,4.40
2022-09-12T03:41:41.699Z,4.17
2022-09-12T03:46:46.301Z,4.30
2022-09-12T03:51:50.767Z,4.03
2022-09-12T03:56:54.513Z,3.57
2022-09-12T04:01:58.525Z,5.57
2022-09-12T04:07:02.308Z,5.60
2022-09-12T04:12:06.107Z,4.93
2022-09-12T04:17:10.748Z,5.23
2022-09-12T04:22:14.668Z,5.07
2022-09-12T04:27:18.697Z,4.70
2022-09-12T04:32:23.218Z,5.20
2022-09-12T04:37:27.799Z,5.30
2022-09-12T04:42:31.883Z,4.67
2022-09-12T04:47:35.617Z,5.07
2022-09-12T04:52:39.612Z,4.33
2022-09-12T04:57:43.541Z,4.83
2022-09-12T05:02:47.568Z,5.30
2022-09-12T05:07:51.760Z,5.07
2022-09-12T05:12:55.269Z,4.43
2022-09-12T05:18:01.003Z,4.87
2022-09-12T05:23:19.037Z,4.80
2022-09-12T05:28:23.540Z,5.13
2022-09-12T05:33:27.747Z,5.03
2022-09-12T05:38:32.185Z,6.03
2022-09-12T05:43:37.231Z,4.87
2022-09-12T05:48:43.212Z,5.00
2022-09-12T05:53:49.803Z,5.40
2022-09-12T05:59:01.799Z,5.07
2022-09-12T06:04:07.568Z,5.20
2022-09-12T06:09:12.684Z,4.87
2022-09-12T06:14:17.791Z,4.93
2022-09-12T06:19:24.606Z,4.13
2022-09-12T06:24:29.314Z,4.50
2022-09-12T06:29:34.500Z,3.63
2022-09-12T06:34:39.055Z,3.80
2022-09-12T06:39:43.042Z,3.47
2022-09-12T06:44:46.447Z,3.60
2022-09-12T06:49:51.899Z,3.10
2022-09-12T06:54:55.572Z,2.60
2022-09-12T07:00:00.410Z,2.50
2022-09-12T07:05:05.203Z,2.30
2022-09-12T07:10:10.554Z,2.03
2022-09-12T07:15:14.883Z,1.90
2022-09-12T07:20:21.965Z,1.87
2022-09-12T07:25:26.379Z,1.40
2022-09-12T07:30:30.739Z,1.70
2022-09-12T07:35:35.920Z,1.30
2022-09-12T07:40:41.354Z,1.20
2022-09-12T07:45:45.786Z,1.30
2022-09-12T07:51:03.152Z,1.30
2022-09-12T07:56:17.090Z,1.00
2022-09-12T08:01:27.330Z,1.40
2022-09-12T08:06:36.797Z,1.40
2022-09-12T08:11:44.231Z,1.27
2022-09-12T08:16:49.555Z,1.20
2022-09-12T08:21:53.787Z,1.00
2022-09-12T08:27:01.360Z,1.20
2022-09-12T08:32:06.227Z,1.20
2022-09-12T08:37:13.169Z,1.13
2022-09-12T08:43:12.575Z,1.10
2022-09-12T08:48:24.785Z,1.30
2022-09-12T08:53:37.491Z,1.10
2022-09-12T08:58:48.906Z,0.93
2022-09-12T09:03:57.531Z,1.27
2022-09-12T09:09:34.846Z,1.13
2022-09-12T09:15:11.562Z,1.13
2022-09-12T09:20:43.288Z,1.33
2022-09-12T09:26:15.457Z,0.90
2022-09-12T09:31:27.075Z,0.90
2022-09-12T09:37:04.156Z,0.80
2022-09-12T09:42:41.762Z,0.75
2022-09-12T09:48:15.189Z,1.10
2022-09-12T09:53:52.158Z,0.90
2022-09-12T09:58:56.092Z,0.95
2022-09-12T10:04:00.333Z,0.90
2022-09-12T10:09:16.188Z,0.93
2022-09-12T10:14:35.973Z,0.93
2022-09-12T10:19:40.891Z,1.10
2022-09-12T10:24:50.678Z,1.15
2022-09-12T10:30:21.610Z,0.73
2022-09-12T10:35:31.097Z,1.13
2022-09-12T10:40:43.435Z,1.10
2022-09-12T10:45:47.396Z,1.10
2022-09-12T10:50:51.126Z,1.02
2022-09-12T10:56:14.497Z,1.23
2022-09-12T11:01:30.168Z,0.88
2022-09-12T11:06:51.636Z,0.82
2022-09-12T11:12:19.359Z,1.05
2022-09-12T11:17:52.838Z,0.95
2022-09-12T11:23:18.097Z,0.90
2022-09-12T11:28:37.069Z,1.23
2022-09-12T11:33:56.785Z,0.90
2022-09-12T11:39:55.743Z,0.80
2022-09-12T11:45:13.887Z,1.00
2022-09-12T11:50:30.527Z,1.00
2022-09-12T11:56:01.123Z,1.00
2022-09-12T12:01:15.678Z,0.90
2022-09-12T12:06:26.468Z,1.10
2022-09-12T12:11:38.458Z,0.85
2022-09-12T12:16:43.125Z,1.10
2022-09-12T12:21:50.004Z,1.20
2022-09-12T12:27:04.998Z,1.17
2022-09-12T12:32:21.620Z,1.23
2022-09-12T12:37:30.036Z,1.35
2022-09-12T12:42:58.527Z,1.05
2022-09-12T12:48:12.991Z,1.30
2022-09-12T12:53:28.979Z,1.65
2022-09-12T12:58:41.297Z,1.50
2022-09-12T13:04:00.874Z,1.40
2022-09-12T13:09:10.279Z,1.55
2022-09-12T13:14:36.385Z,1.38
2022-09-12T13:19:40.936Z,1.60
2022-09-12T13:24:52.123Z,1.42
2022-09-12T13:30:16.195Z,1.48
2022-09-12T13:35:31.965Z,1.42
2022-09-12T13:40:59.695Z,1.63
2022-09-12T13:46:03.513Z,1.40
2022-09-12T13:51:08.533Z,1.38
2022-09-12T13:56:20.539Z,1.70
2022-09-12T14:01:27.133Z,1.40
2022-09-12T14:06:38.518Z,1.40
2022-09-12T14:11:42.097Z,1.30
2022-09-12T14:16:45.330Z,1.88
2022-09-12T14:21:50.588Z,1.77
2022-09-12T14:26:57.437Z,1.52
2022-09-12T14:32:06.475Z,1.67
2022-09-12T14:37:10.097Z,2.00
2022-09-12T14:42:27.530Z,1.83
2022-09-12T14:47:39.192Z,1.67
2022-09-12T14:52:45.297Z,1.23
2022-09-12T14:57:51.237Z,1.60
2022-09-12T15:02:55.635Z,1.17
2022-09-12T15:08:01.795Z,2.40
2022-09-12T15:13:17.075Z,1.75
2022-09-12T15:18:21.469Z,1.48
2022-09-12T15:23:50.897Z,1.60
2022-09-12T15:28:54.755Z,1.50
2022-09-12T15:34:01.673Z,1.20
2022-09-12T15:39:06.034Z,1.70
2022-09-12T15:44:13.332Z,1.25
2022-09-12T15:49:16.928Z,1.60
2022-09-12T15:54:23.945Z,1.25
2022-09-12T15:59:27.283Z,1.20
2022-09-12T16:04:31.631Z,1.30
2022-09-12T16:09:35.247Z,1.80
2022-09-12T16:14:38.565Z,1.10
2022-09-12T16:19:44.137Z,2.78
2022-09-12T16:24:47.566Z,1.63
2022-09-12T16:29:51.928Z,1.92
2022-09-12T16:34:56.488Z,1.50
2022-09-12T16:40:01.234Z,1.35
2022-09-12T16:45:05.246Z,1.52
2022-09-12T16:50:09.078Z,1.92
2022-09-12T16:55:12.718Z,1.85
2022-09-12T17:00:16.646Z,1.50
2022-09-12T17:05:21.387Z,1.67
2022-09-12T17:10:24.945Z,1.98
2022-09-12T17:15:29.298Z,2.00
2022-09-12T17:20:35.888Z,1.83
2022-09-12T17:25:39.550Z,2.30
2022-09-12T17:30:43.777Z,2.07
2022-09-12T17:35:47.022Z,2.50
2022-09-12T17:40:59.405Z,2.57
2022-09-12T17:46:04.055Z,2.43
2022-09-12T17:51:13.044Z,2.37
2022-09-12T17:56:18.707Z,3.33
2022-09-12T18:01:42.012Z,2.43
2022-09-12T18:06:49.327Z,2.77
2022-09-12T18:11:55.607Z,2.53
2022-09-12T18:17:01.131Z,3.23
2022-09-12T18:22:06.948Z,3.87
2022-09-12T18:27:11.325Z,4.50
2022-09-12T18:32:15.190Z,6.40
2022-09-12T18:37:18.988Z,5.60
2022-09-12T18:42:22.345Z,7.00
2022-09-12T18:47:26.916Z,8.87
2022-09-12T18:52:32.562Z,11.17
2022-09-12T18:57:36.777Z,10.27
2022-09-12T19:02:40.947Z,10.70
2022-09-12T19:07:44.767Z,11.77
2022-09-12T19:12:48.907Z,10.83
2022-09-12T19:17:53.267Z,10.50
2022-09-12T19:22:57.340Z,11.80
2022-09-12T19:28:01.187Z,10.33
2022-09-12T19:33:04.756Z,10.70
2022-09-12T19:38:08.627Z,10.87
2022-09-12T19:43:12.787Z,9.83
2022-09-12T19:48:15.978Z,11.20
2022-09-12T19:53:19.885Z,15.57
2022-09-12T19:58:23.755Z,16.20
2022-09-12T20:03:27.364Z,10.73
2022-09-12T20:08:31.159Z,11.87
2022-09-12T20:13:34.467Z,14.37
2022-09-12T20:18:38.507Z,12.00
2022-09-12T20:23:41.935Z,11.13
2022-09-12T20:28:45.500Z,10.70
2022-09-12T20:33:51.748Z,11.10
2022-09-12T20:38:59.221Z,12.27
2022-09-12T20:44:03.117Z,10.60
2022-09-12T20:49:09.986Z,10.17
2022-09-12T20:54:14.034Z,10.07
2022-09-12T20:59:17.767Z,12.47
2022-09-12T21:04:21.507Z,11.57
2022-09-12T21:09:24.633Z,10.23
2022-09-12T21:14:30.963Z,11.07
2022-09-12T21:19:35.388Z,12.40
2022-09-12T21:24:38.895Z,13.93
2022-09-12T21:29:42.247Z,12.43
2022-09-12T21:34:48.136Z,12.37
2022-09-12T21:39:51.625Z,10.33
2022-09-12T21:44:56.071Z,10.77
2022-09-12T21:49:59.547Z,10.57
2022-09-12T21:55:07.435Z,13.33
2022-09-12T22:00:17.227Z,12.63
2022-09-12T22:05:22.397Z,11.93
2022-09-12T22:10:32.657Z,11.40
2022-09-12T22:15:52.498Z,13.23
2022-09-12T22:21:18.550Z,18.53
2022-09-12T22:26:22.399Z,18.13
2022-09-12T22:31:27.684Z,18.93
2022-09-12T22:36:32.783Z,17.07
2022-09-12T22:41:37.727Z,10.40
2022-09-12T22:46:41.802Z,11.47
2022-09-12T22:51:45.154Z,9.27
2022-09-12T22:56:48.501Z,9.73
2022-09-12T23:01:52.181Z,10.23
2022-09-12T23:06:56.340Z,9.40
2022-09-12T23:11:59.978Z,8.83
2022-09-12T23:17:04.451Z,9.43
2022-09-12T23:22:07.788Z,10.97
2022-09-12T23:27:11.170Z,11.77
2022-09-12T23:32:29.131Z,11.77
2022-09-12T23:37:47.829Z,11.10
2022-09-12T23:42:51.417Z,10.83
2022-09-12T23:47:54.847Z,12.97
2022-09-12T23:52:58.380Z,11.67
2022-09-12T23:58:01.804Z,11.87
